sensor_id;sensor_type;location;lat;lon;timestamp;P1;durP1;ratioP1;P2;durP2;ratioP2
61038;SDS011;46919;45.816;3.104;2023-02-24T00:01:35;16.15;;;9.98;;
61038;SDS011;46919;45.816;3.104;2023-02-24T00:04:04;16.60;;;9.80;;
61038;SDS011;46919;45.816;3.104;2023-02-24T00:06:37;12.88;;;9.52;;
61038;SDS011;46919;45.816;3.104;2023-02-24T00:11:32;12.07;;;9.10;;
61038;SDS011;46919;45.816;3.104;2023-02-24T00:13:59;12.10;;;8.25;;
61038;SDS011;46919;45.816;3.104;2023-02-24T00:16:24;13.85;;;8.80;;
61038;SDS011;46919;45.816;3.104;2023-02-24T00:18:51;11.30;;;7.72;;
61038;SDS011;46919;45.816;3.104;2023-02-24T00:21:16;9.30;;;6.90;;
61038;SDS011;46919;45.816;3.104;2023-02-24T00:23:43;12.07;;;7.85;;
61038;SDS011;46919;45.816;3.104;2023-02-24T00:26:10;11.90;;;7.68;;
61038;SDS011;46919;45.816;3.104;2023-02-24T00:28:38;12.10;;;7.63;;
61038;SDS011;46919;45.816;3.104;2023-02-24T00:31:05;11.98;;;7.70;;
61038;SDS011;46919;45.816;3.104;2023-02-24T00:33:33;14.90;;;8.75;;
61038;SDS011;46919;45.816;3.104;2023-02-24T00:36:06;9.82;;;7.32;;
61038;SDS011;46919;45.816;3.104;2023-02-24T00:38:34;12.50;;;7.88;;
61038;SDS011;46919;45.816;3.104;2023-02-24T00:41:06;10.73;;;8.05;;
61038;SDS011;46919;45.816;3.104;2023-02-24T00:43:33;9.95;;;7.45;;
61038;SDS011;46919;45.816;3.104;2023-02-24T00:46:01;11.48;;;7.97;;
61038;SDS011;46919;45.816;3.104;2023-02-24T00:48:35;11.43;;;7.68;;
61038;SDS011;46919;45.816;3.104;2023-02-24T00:51:09;9.73;;;7.63;;
61038;SDS011;46919;45.816;3.104;2023-02-24T00:53:35;13.23;;;9.32;;
61038;SDS011;46919;45.816;3.104;2023-02-24T00:56:03;14.18;;;9.82;;
61038;SDS011;46919;45.816;3.104;2023-02-24T00:58:34;15.27;;;10.77;;
61038;SDS011;46919;45.816;3.104;2023-02-24T01:01:00;15.85;;;10.77;;
61038;SDS011;46919;45.816;3.104;2023-02-24T01:03:26;17.73;;;11.57;;
61038;SDS011;46919;45.816;3.104;2023-02-24T01:05:52;17.40;;;11.38;;
61038;SDS011;46919;45.816;3.104;2023-02-24T01:08:18;17.77;;;12.60;;
61038;SDS011;46919;45.816;3.104;2023-02-24T01:10:58;17.92;;;11.48;;
61038;SDS011;46919;45.816;3.104;2023-02-24T01:13:43;13.75;;;10.13;;
61038;SDS011;46919;45.816;3.104;2023-02-24T01:16:10;17.13;;;11.60;;
61038;SDS011;46919;45.816;3.104;2023-02-24T01:18:43;16.67;;;12.75;;
61038;SDS011;46919;45.816;3.104;2023-02-24T01:21:09;18.15;;;12.68;;
61038;SDS011;46919;45.816;3.104;2023-02-24T01:23:36;16.98;;;11.90;;
61038;SDS011;46919;45.816;3.104;2023-02-24T01:26:02;17.20;;;12.32;;
61038;SDS011;46919;45.816;3.104;2023-02-24T01:28:28;15.35;;;10.25;;
61038;SDS011;46919;45.816;3.104;2023-02-24T01:30:54;17.92;;;9.75;;
61038;SDS011;46919;45.816;3.104;2023-02-24T01:33:20;13.52;;;9.23;;
61038;SDS011;46919;45.816;3.104;2023-02-24T01:35:46;15.48;;;10.25;;
61038;SDS011;46919;45.816;3.104;2023-02-24T01:38:12;17.92;;;11.05;;
61038;SDS011;46919;45.816;3.104;2023-02-24T01:40:38;13.05;;;10.15;;
61038;SDS011;46919;45.816;3.104;2023-02-24T01:43:04;16.40;;;10.27;;
61038;SDS011;46919;45.816;3.104;2023-02-24T01:45:34;15.52;;;11.13;;
61038;SDS011;46919;45.816;3.104;2023-02-24T01:48:07;15.60;;;11.90;;
61038;SDS011;46919;45.816;3.104;2023-02-24T01:50:34;18.17;;;12.60;;
61038;SDS011;46919;45.816;3.104;2023-02-24T01:53:03;17.85;;;13.10;;
61038;SDS011;46919;45.816;3.104;2023-02-24T01:55:40;18.45;;;12.75;;
61038;SDS011;46919;45.816;3.104;2023-02-24T01:58:32;15.00;;;11.45;;
61038;SDS011;46919;45.816;3.104;2023-02-24T02:00:57;16.70;;;11.20;;
61038;SDS011;46919;45.816;3.104;2023-02-24T02:03:30;16.50;;;10.60;;
61038;SDS011;46919;45.816;3.104;2023-02-24T02:06:02;18.35;;;10.77;;
61038;SDS011;46919;45.816;3.104;2023-02-24T02:08:30;14.30;;;8.43;;
61038;SDS011;46919;45.816;3.104;2023-02-24T02:10:57;11.65;;;7.72;;
61038;SDS011;46919;45.816;3.104;2023-02-24T02:13:27;11.20;;;8.23;;
61038;SDS011;46919;45.816;3.104;2023-02-24T02:24:19;10.95;;;7.47;;
61038;SDS011;46919;45.816;3.104;2023-02-24T02:27:00;12.32;;;8.57;;
61038;SDS011;46919;45.816;3.104;2023-02-24T02:38:15;10.35;;;6.57;;
61038;SDS011;46919;45.816;3.104;2023-02-24T02:44:07;7.35;;;5.32;;
61038;SDS011;46919;45.816;3.104;2023-02-24T02:49:15;5.45;;;4.43;;
61038;SDS011;46919;45.816;3.104;2023-02-24T02:51:49;7.25;;;5.18;;
61038;SDS011;46919;45.816;3.104;2023-02-24T02:54:26;7.72;;;4.75;;
61038;SDS011;46919;45.816;3.104;2023-02-24T02:56:58;7.68;;;5.53;;
61038;SDS011;46919;45.816;3.104;2023-02-24T02:59:30;9.25;;;5.47;;
61038;SDS011;46919;45.816;3.104;2023-02-24T03:01:59;8.55;;;5.60;;
61038;SDS011;46919;45.816;3.104;2023-02-24T03:04:40;7.25;;;5.05;;
61038;SDS011;46919;45.816;3.104;2023-02-24T03:07:10;8.45;;;5.97;;
61038;SDS011;46919;45.816;3.104;2023-02-24T03:09:39;8.15;;;5.53;;
61038;SDS011;46919;45.816;3.104;2023-02-24T03:12:10;6.47;;;5.82;;
61038;SDS011;46919;45.816;3.104;2023-02-24T03:14:41;8.85;;;5.75;;
61038;SDS011;46919;45.816;3.104;2023-02-24T03:17:21;7.65;;;5.60;;
61038;SDS011;46919;45.816;3.104;2023-02-24T03:19:51;8.68;;;6.43;;
61038;SDS011;46919;45.816;3.104;2023-02-24T03:22:32;10.35;;;6.55;;
61038;SDS011;46919;45.816;3.104;2023-02-24T03:25:03;11.02;;;7.45;;
61038;SDS011;46919;45.816;3.104;2023-02-24T03:27:31;10.35;;;7.32;;
61038;SDS011;46919;45.816;3.104;2023-02-24T03:30:20;12.77;;;7.82;;
61038;SDS011;46919;45.816;3.104;2023-02-24T03:32:49;10.57;;;7.13;;
61038;SDS011;46919;45.816;3.104;2023-02-24T03:35:25;10.68;;;7.65;;
61038;SDS011;46919;45.816;3.104;2023-02-24T03:37:53;10.68;;;7.05;;
61038;SDS011;46919;45.816;3.104;2023-02-24T03:40:22;11.52;;;7.50;;
61038;SDS011;46919;45.816;3.104;2023-02-24T03:43:08;10.90;;;7.47;;
61038;SDS011;46919;45.816;3.104;2023-02-24T03:45:42;11.05;;;7.88;;
61038;SDS011;46919;45.816;3.104;2023-02-24T03:48:10;12.50;;;7.80;;
61038;SDS011;46919;45.816;3.104;2023-02-24T03:50:37;12.20;;;8.15;;
61038;SDS011;46919;45.816;3.104;2023-02-24T03:59:11;13.35;;;9.02;;
61038;SDS011;46919;45.816;3.104;2023-02-24T04:01:51;11.73;;;8.80;;
61038;SDS011;46919;45.816;3.104;2023-02-24T04:09:25;12.85;;;9.00;;
61038;SDS011;46919;45.816;3.104;2023-02-24T04:12:29;12.18;;;8.88;;
61038;SDS011;46919;45.816;3.104;2023-02-24T04:15:03;14.23;;;9.07;;
61038;SDS011;46919;45.816;3.104;2023-02-24T04:17:38;14.50;;;9.32;;
61038;SDS011;46919;45.816;3.104;2023-02-24T04:20:20;16.90;;;10.18;;
61038;SDS011;46919;45.816;3.104;2023-02-24T04:22:49;15.75;;;9.98;;
61038;SDS011;46919;45.816;3.104;2023-02-24T04:25:19;13.25;;;9.30;;
61038;SDS011;46919;45.816;3.104;2023-02-24T04:27:49;12.80;;;9.15;;
61038;SDS011;46919;45.816;3.104;2023-02-24T04:30:17;13.52;;;9.32;;
61038;SDS011;46919;45.816;3.104;2023-02-24T04:32:44;11.70;;;8.68;;
61038;SDS011;46919;45.816;3.104;2023-02-24T04:35:14;13.27;;;8.80;;
61038;SDS011;46919;45.816;3.104;2023-02-24T04:37:43;11.55;;;8.77;;
61038;SDS011;46919;45.816;3.104;2023-02-24T04:40:12;13.20;;;9.20;;
61038;SDS011;46919;45.816;3.104;2023-02-24T04:42:43;14.38;;;8.98;;
61038;SDS011;46919;45.816;3.104;2023-02-24T04:45:16;14.05;;;9.00;;
61038;SDS011;46919;45.816;3.104;2023-02-24T04:47:45;12.02;;;9.23;;
61038;SDS011;46919;45.816;3.104;2023-02-24T04:50:15;14.48;;;10.15;;
61038;SDS011;46919;45.816;3.104;2023-02-24T04:53:00;15.38;;;9.88;;
61038;SDS011;46919;45.816;3.104;2023-02-24T04:55:53;12.55;;;9.82;;
61038;SDS011;46919;45.816;3.104;2023-02-24T04:58:21;14.63;;;10.55;;
61038;SDS011;46919;45.816;3.104;2023-02-24T05:00:51;15.70;;;9.85;;
61038;SDS011;46919;45.816;3.104;2023-02-24T05:03:18;14.35;;;10.48;;
61038;SDS011;46919;45.816;3.104;2023-02-24T05:05:52;16.05;;;9.88;;
61038;SDS011;46919;45.816;3.104;2023-02-24T05:08:24;13.57;;;10.52;;
61038;SDS011;46919;45.816;3.104;2023-02-24T05:10:51;15.95;;;10.65;;
61038;SDS011;46919;45.816;3.104;2023-02-24T05:13:18;13.57;;;10.35;;
61038;SDS011;46919;45.816;3.104;2023-02-24T05:15:51;14.70;;;10.30;;
61038;SDS011;46919;45.816;3.104;2023-02-24T05:18:17;13.45;;;9.88;;
61038;SDS011;46919;45.816;3.104;2023-02-24T05:20:43;14.25;;;10.30;;
61038;SDS011;46919;45.816;3.104;2023-02-24T05:23:33;13.23;;;10.55;;
61038;SDS011;46919;45.816;3.104;2023-02-24T05:26:04;15.43;;;11.40;;
61038;SDS011;46919;45.816;3.104;2023-02-24T05:28:43;13.98;;;10.55;;
61038;SDS011;46919;45.816;3.104;2023-02-24T05:31:17;15.15;;;10.73;;
61038;SDS011;46919;45.816;3.104;2023-02-24T05:33:48;17.05;;;11.38;;
61038;SDS011;46919;45.816;3.104;2023-02-24T05:36:18;17.30;;;12.15;;
61038;SDS011;46919;45.816;3.104;2023-02-24T05:38:45;19.40;;;12.55;;
61038;SDS011;46919;45.816;3.104;2023-02-24T05:41:13;23.67;;;13.75;;
61038;SDS011;46919;45.816;3.104;2023-02-24T05:43:45;19.52;;;12.52;;
61038;SDS011;46919;45.816;3.104;2023-02-24T05:46:15;17.80;;;12.40;;
61038;SDS011;46919;45.816;3.104;2023-02-24T05:48:40;22.17;;;12.43;;
61038;SDS011;46919;45.816;3.104;2023-02-24T05:51:06;21.83;;;12.45;;
61038;SDS011;46919;45.816;3.104;2023-02-24T05:53:33;20.95;;;12.48;;
61038;SDS011;46919;45.816;3.104;2023-02-24T05:55:59;18.40;;;13.05;;
61038;SDS011;46919;45.816;3.104;2023-02-24T05:58:27;17.95;;;12.60;;
61038;SDS011;46919;45.816;3.104;2023-02-24T06:00:53;21.85;;;13.55;;
61038;SDS011;46919;45.816;3.104;2023-02-24T06:03:20;22.75;;;13.43;;
61038;SDS011;46919;45.816;3.104;2023-02-24T06:05:54;21.77;;;12.48;;
61038;SDS011;46919;45.816;3.104;2023-02-24T06:08:29;19.77;;;12.32;;
61038;SDS011;46919;45.816;3.104;2023-02-24T06:11:06;17.75;;;11.90;;
61038;SDS011;46919;45.816;3.104;2023-02-24T06:13:34;17.90;;;12.52;;
61038;SDS011;46919;45.816;3.104;2023-02-24T06:16:01;18.52;;;12.13;;
61038;SDS011;46919;45.816;3.104;2023-02-24T06:18:26;19.38;;;11.60;;
61038;SDS011;46919;45.816;3.104;2023-02-24T06:20:53;20.60;;;12.65;;
61038;SDS011;46919;45.816;3.104;2023-02-24T06:23:18;48.28;;;32.58;;
61038;SDS011;46919;45.816;3.104;2023-02-24T06:25:43;18.08;;;12.45;;
61038;SDS011;46919;45.816;3.104;2023-02-24T06:28:09;20.98;;;12.90;;
61038;SDS011;46919;45.816;3.104;2023-02-24T06:30:35;26.60;;;15.90;;
61038;SDS011;46919;45.816;3.104;2023-02-24T06:33:02;22.63;;;13.23;;
61038;SDS011;46919;45.816;3.104;2023-02-24T06:35:29;24.73;;;13.88;;
61038;SDS011;46919;45.816;3.104;2023-02-24T06:37:58;22.75;;;13.85;;
61038;SDS011;46919;45.816;3.104;2023-02-24T06:40:24;21.83;;;13.02;;
61038;SDS011;46919;45.816;3.104;2023-02-24T06:42:50;24.65;;;14.65;;
61038;SDS011;46919;45.816;3.104;2023-02-24T06:45:18;28.88;;;16.80;;
61038;SDS011;46919;45.816;3.104;2023-02-24T06:47:44;23.67;;;14.25;;
61038;SDS011;46919;45.816;3.104;2023-02-24T06:50:13;23.08;;;14.48;;
61038;SDS011;46919;45.816;3.104;2023-02-24T06:52:39;18.55;;;13.20;;
61038;SDS011;46919;45.816;3.104;2023-02-24T06:55:07;23.10;;;14.45;;
61038;SDS011;46919;45.816;3.104;2023-02-24T06:57:49;20.95;;;14.02;;
61038;SDS011;46919;45.816;3.104;2023-02-24T07:00:17;22.38;;;15.05;;
61038;SDS011;46919;45.816;3.104;2023-02-24T07:02:49;21.02;;;12.63;;
61038;SDS011;46919;45.816;3.104;2023-02-24T07:05:14;23.58;;;15.88;;
61038;SDS011;46919;45.816;3.104;2023-02-24T07:07:41;23.77;;;14.90;;
61038;SDS011;46919;45.816;3.104;2023-02-24T07:10:12;23.33;;;14.38;;
61038;SDS011;46919;45.816;3.104;2023-02-24T07:12:38;22.65;;;16.00;;
61038;SDS011;46919;45.816;3.104;2023-02-24T07:15:06;22.27;;;15.48;;
61038;SDS011;46919;45.816;3.104;2023-02-24T07:17:32;23.73;;;14.63;;
61038;SDS011;46919;45.816;3.104;2023-02-24T07:19:58;19.05;;;14.52;;
61038;SDS011;46919;45.816;3.104;2023-02-24T07:22:34;24.75;;;15.40;;
61038;SDS011;46919;45.816;3.104;2023-02-24T07:25:00;22.30;;;14.82;;
61038;SDS011;46919;45.816;3.104;2023-02-24T07:27:25;21.27;;;15.13;;
61038;SDS011;46919;45.816;3.104;2023-02-24T07:29:51;23.05;;;15.70;;
61038;SDS011;46919;45.816;3.104;2023-02-24T07:32:17;22.52;;;15.95;;
61038;SDS011;46919;45.816;3.104;2023-02-24T07:34:46;23.35;;;15.80;;
61038;SDS011;46919;45.816;3.104;2023-02-24T07:37:11;22.90;;;16.63;;
61038;SDS011;46919;45.816;3.104;2023-02-24T07:39:37;22.55;;;16.33;;
61038;SDS011;46919;45.816;3.104;2023-02-24T07:42:04;21.55;;;16.33;;
61038;SDS011;46919;45.816;3.104;2023-02-24T07:44:30;28.02;;;17.88;;
61038;SDS011;46919;45.816;3.104;2023-02-24T07:46:57;27.90;;;17.73;;
61038;SDS011;46919;45.816;3.104;2023-02-24T07:49:23;25.13;;;17.80;;
61038;SDS011;46919;45.816;3.104;2023-02-24T07:51:50;24.45;;;16.98;;
61038;SDS011;46919;45.816;3.104;2023-02-24T07:54:18;25.83;;;17.35;;
61038;SDS011;46919;45.816;3.104;2023-02-24T07:56:45;24.90;;;16.73;;
61038;SDS011;46919;45.816;3.104;2023-02-24T07:59:22;27.80;;;17.80;;
61038;SDS011;46919;45.816;3.104;2023-02-24T08:01:56;27.58;;;17.55;;
61038;SDS011;46919;45.816;3.104;2023-02-24T08:04:23;23.40;;;16.60;;
61038;SDS011;46919;45.816;3.104;2023-02-24T08:06:51;27.88;;;17.23;;
61038;SDS011;46919;45.816;3.104;2023-02-24T08:09:20;25.50;;;16.88;;
61038;SDS011;46919;45.816;3.104;2023-02-24T08:12:07;22.27;;;16.95;;
61038;SDS011;46919;45.816;3.104;2023-02-24T08:14:33;24.17;;;17.23;;
61038;SDS011;46919;45.816;3.104;2023-02-24T08:16:59;24.65;;;16.75;;
61038;SDS011;46919;45.816;3.104;2023-02-24T08:19:29;23.83;;;16.35;;
61038;SDS011;46919;45.816;3.104;2023-02-24T08:22:06;22.00;;;15.32;;
61038;SDS011;46919;45.816;3.104;2023-02-24T08:27:20;29.77;;;16.05;;
61038;SDS011;46919;45.816;3.104;2023-02-24T08:29:52;24.60;;;15.82;;
61038;SDS011;46919;45.816;3.104;2023-02-24T08:32:32;25.55;;;17.02;;
61038;SDS011;46919;45.816;3.104;2023-02-24T08:35:05;25.92;;;16.25;;
61038;SDS011;46919;45.816;3.104;2023-02-24T08:37:38;22.25;;;15.63;;
61038;SDS011;46919;45.816;3.104;2023-02-24T08:40:12;23.00;;;14.93;;
61038;SDS011;46919;45.816;3.104;2023-02-24T08:45:40;27.67;;;19.80;;
61038;SDS011;46919;45.816;3.104;2023-02-24T08:48:15;29.98;;;20.85;;
61038;SDS011;46919;45.816;3.104;2023-02-24T08:50:56;29.48;;;19.88;;
61038;SDS011;46919;45.816;3.104;2023-02-24T08:53:23;27.38;;;18.98;;
61038;SDS011;46919;45.816;3.104;2023-02-24T08:55:55;28.88;;;20.15;;
61038;SDS011;46919;45.816;3.104;2023-02-24T08:58:22;32.38;;;20.90;;
61038;SDS011;46919;45.816;3.104;2023-02-24T09:00:54;31.63;;;20.60;;
61038;SDS011;46919;45.816;3.104;2023-02-24T09:03:23;26.60;;;19.13;;
61038;SDS011;46919;45.816;3.104;2023-02-24T09:06:01;25.27;;;18.13;;
61038;SDS011;46919;45.816;3.104;2023-02-24T09:08:33;28.92;;;18.25;;
61038;SDS011;46919;45.816;3.104;2023-02-24T09:11:03;25.30;;;17.90;;
61038;SDS011;46919;45.816;3.104;2023-02-24T09:13:36;25.85;;;18.05;;
61038;SDS011;46919;45.816;3.104;2023-02-24T09:16:15;26.65;;;17.20;;
61038;SDS011;46919;45.816;3.104;2023-02-24T09:18:43;25.25;;;16.73;;
61038;SDS011;46919;45.816;3.104;2023-02-24T09:21:12;26.10;;;16.90;;
61038;SDS011;46919;45.816;3.104;2023-02-24T09:23:58;24.80;;;16.95;;
61038;SDS011;46919;45.816;3.104;2023-02-24T09:26:27;31.13;;;19.15;;
61038;SDS011;46919;45.816;3.104;2023-02-24T09:28:56;26.73;;;17.27;;
61038;SDS011;46919;45.816;3.104;2023-02-24T09:31:22;25.20;;;18.00;;
61038;SDS011;46919;45.816;3.104;2023-02-24T09:33:48;34.35;;;23.52;;
61038;SDS011;46919;45.816;3.104;2023-02-24T09:36:18;29.38;;;21.05;;
61038;SDS011;46919;45.816;3.104;2023-02-24T09:38:52;19.95;;;13.73;;
61038;SDS011;46919;45.816;3.104;2023-02-24T09:41:33;21.60;;;11.88;;
61038;SDS011;46919;45.816;3.104;2023-02-24T09:44:54;15.38;;;8.77;;
61038;SDS011;46919;45.816;3.104;2023-02-24T09:52:47;11.45;;;6.80;;
61038;SDS011;46919;45.816;3.104;2023-02-24T09:58:38;15.10;;;7.07;;
61038;SDS011;46919;45.816;3.104;2023-02-24T10:06:46;3.90;;;2.28;;
61038;SDS011;46919;45.816;3.104;2023-02-24T10:09:55;2.63;;;1.65;;
61038;SDS011;46919;45.816;3.104;2023-02-24T10:12:23;4.15;;;1.20;;
61038;SDS011;46919;45.816;3.104;2023-02-24T10:20:59;0.95;;;0.32;;
61038;SDS011;46919;45.816;3.104;2023-02-24T10:29:30;0.52;;;0.30;;
61038;SDS011;46919;45.816;3.104;2023-02-24T10:34:57;0.20;;;0.20;;
61038;SDS011;46919;45.816;3.104;2023-02-24T10:37:24;0.47;;;0.20;;
61038;SDS011;46919;45.816;3.104;2023-02-24T10:39:55;0.90;;;0.20;;
61038;SDS011;46919;45.816;3.104;2023-02-24T10:42:28;0.47;;;0.20;;
61038;SDS011;46919;45.816;3.104;2023-02-24T10:45:05;0.20;;;0.10;;
61038;SDS011;46919;45.816;3.104;2023-02-24T10:47:38;0.10;;;0.10;;
61038;SDS011;46919;45.816;3.104;2023-02-24T10:53:11;2.33;;;0.10;;
61038;SDS011;46919;45.816;3.104;2023-02-24T10:56:12;1.35;;;0.20;;
61038;SDS011;46919;45.816;3.104;2023-02-24T10:59:00;2.20;;;0.30;;
61038;SDS011;46919;45.816;3.104;2023-02-24T11:02:00;0.98;;;0.20;;
61038;SDS011;46919;45.816;3.104;2023-02-24T11:04:47;0.25;;;0.10;;
61038;SDS011;46919;45.816;3.104;2023-02-24T11:07:26;0.10;;;0.10;;
61038;SDS011;46919;45.816;3.104;2023-02-24T11:10:11;0.88;;;0.20;;
61038;SDS011;46919;45.816;3.104;2023-02-24T11:12:43;2.83;;;0.30;;
61038;SDS011;46919;45.816;3.104;2023-02-24T11:16:02;3.70;;;0.80;;
61038;SDS011;46919;45.816;3.104;2023-02-24T11:18:44;1.27;;;0.52;;
61038;SDS011;46919;45.816;3.104;2023-02-24T11:21:13;1.90;;;0.70;;
61038;SDS011;46919;45.816;3.104;2023-02-24T11:23:43;2.92;;;1.40;;
61038;SDS011;46919;45.816;3.104;2023-02-24T11:34:49;3.15;;;0.75;;
61038;SDS011;46919;45.816;3.104;2023-02-24T11:40:05;2.88;;;0.90;;
61038;SDS011;46919;45.816;3.104;2023-02-24T11:48:22;2.38;;;0.85;;
61038;SDS011;46919;45.816;3.104;2023-02-24T11:50:55;6.30;;;2.75;;
61038;SDS011;46919;45.816;3.104;2023-02-24T11:53:35;4.10;;;1.67;;
61038;SDS011;46919;45.816;3.104;2023-02-24T11:56:13;7.18;;;1.98;;
61038;SDS011;46919;45.816;3.104;2023-02-24T12:07:33;3.78;;;1.42;;
61038;SDS011;46919;45.816;3.104;2023-02-24T12:10:09;4.28;;;1.90;;
61038;SDS011;46919;45.816;3.104;2023-02-24T12:13:11;2.22;;;1.30;;
61038;SDS011;46919;45.816;3.104;2023-02-24T12:18:32;2.95;;;1.02;;
61038;SDS011;46919;45.816;3.104;2023-02-24T12:21:10;1.38;;;0.80;;
61038;SDS011;46919;45.816;3.104;2023-02-24T12:23:45;4.93;;;1.80;;
61038;SDS011;46919;45.816;3.104;2023-02-24T12:26:19;2.47;;;1.00;;
61038;SDS011;46919;45.816;3.104;2023-02-24T12:32:10;6.60;;;1.20;;
61038;SDS011;46919;45.816;3.104;2023-02-24T12:53:44;2.67;;;1.63;;
61038;SDS011;46919;45.816;3.104;2023-02-24T12:56:17;2.42;;;1.70;;
61038;SDS011;46919;45.816;3.104;2023-02-24T12:58:47;1.77;;;1.05;;
61038;SDS011;46919;45.816;3.104;2023-02-24T13:09:33;3.10;;;2.13;;
61038;SDS011;46919;45.816;3.104;2023-02-24T13:15:16;2.13;;;1.42;;
61038;SDS011;46919;45.816;3.104;2023-02-24T13:17:46;5.70;;;2.10;;
61038;SDS011;46919;45.816;3.104;2023-02-24T13:23:17;5.03;;;3.05;;
61038;SDS011;46919;45.816;3.104;2023-02-24T13:25:52;2.95;;;1.13;;
61038;SDS011;46919;45.816;3.104;2023-02-24T13:28:29;5.07;;;1.92;;
61038;SDS011;46919;45.816;3.104;2023-02-24T13:31:10;4.45;;;3.58;;
61038;SDS011;46919;45.816;3.104;2023-02-24T13:33:41;5.85;;;2.17;;
61038;SDS011;46919;45.816;3.104;2023-02-24T13:36:12;5.95;;;1.60;;
61038;SDS011;46919;45.816;3.104;2023-02-24T13:38:50;2.75;;;1.50;;
61038;SDS011;46919;45.816;3.104;2023-02-24T13:46:27;3.53;;;1.20;;
61038;SDS011;46919;45.816;3.104;2023-02-24T13:49:51;2.42;;;1.05;;
61038;SDS011;46919;45.816;3.104;2023-02-24T13:51:58;3.65;;;1.35;;
61038;SDS011;46919;45.816;3.104;2023-02-24T14:02:56;3.03;;;1.35;;
61038;SDS011;46919;45.816;3.104;2023-02-24T14:07:51;3.17;;;1.08;;
61038;SDS011;46919;45.816;3.104;2023-02-24T14:12:44;2.28;;;1.10;;
61038;SDS011;46919;45.816;3.104;2023-02-24T14:15:12;2.95;;;0.90;;
61038;SDS011;46919;45.816;3.104;2023-02-24T14:17:42;2.10;;;0.90;;
61038;SDS011;46919;45.816;3.104;2023-02-24T14:20:20;2.30;;;0.80;;
61038;SDS011;46919;45.816;3.104;2023-02-24T14:22:57;3.10;;;1.05;;
61038;SDS011;46919;45.816;3.104;2023-02-24T14:25:24;2.55;;;1.08;;
61038;SDS011;46919;45.816;3.104;2023-02-24T14:27:53;2.28;;;1.10;;
61038;SDS011;46919;45.816;3.104;2023-02-24T14:30:22;1.88;;;1.08;;
61038;SDS011;46919;45.816;3.104;2023-02-24T14:32:50;4.88;;;1.92;;
61038;SDS011;46919;45.816;3.104;2023-02-24T14:35:22;1.65;;;0.88;;
61038;SDS011;46919;45.816;3.104;2023-02-24T14:40:54;1.55;;;0.95;;
61038;SDS011;46919;45.816;3.104;2023-02-24T14:43:19;3.08;;;1.08;;
61038;SDS011;46919;45.816;3.104;2023-02-24T14:45:48;2.35;;;0.88;;
61038;SDS011;46919;45.816;3.104;2023-02-24T14:48:51;1.85;;;0.80;;
61038;SDS011;46919;45.816;3.104;2023-02-24T14:51:11;3.10;;;0.87;;
61038;SDS011;46919;45.816;3.104;2023-02-24T14:53:47;3.20;;;0.80;;
61038;SDS011;46919;45.816;3.104;2023-02-24T14:56:16;2.92;;;1.30;;
61038;SDS011;46919;45.816;3.104;2023-02-24T14:58:50;2.10;;;0.80;;
61038;SDS011;46919;45.816;3.104;2023-02-24T15:03:54;2.92;;;0.90;;
61038;SDS011;46919;45.816;3.104;2023-02-24T15:06:24;3.80;;;0.95;;
61038;SDS011;46919;45.816;3.104;2023-02-24T15:08:56;3.67;;;0.90;;
61038;SDS011;46919;45.816;3.104;2023-02-24T15:11:26;1.77;;;1.00;;
61038;SDS011;46919;45.816;3.104;2023-02-24T15:13:54;4.78;;;1.00;;
61038;SDS011;46919;45.816;3.104;2023-02-24T15:19:25;3.33;;;0.80;;
61038;SDS011;46919;45.816;3.104;2023-02-24T15:21:56;2.28;;;1.17;;
61038;SDS011;46919;45.816;3.104;2023-02-24T15:26:53;1.17;;;0.50;;
61038;SDS011;46919;45.816;3.104;2023-02-24T15:29:23;0.50;;;0.20;;
61038;SDS011;46919;45.816;3.104;2023-02-24T15:31:52;0.50;;;0.30;;
61038;SDS011;46919;45.816;3.104;2023-02-24T15:34:23;1.55;;;0.60;;
61038;SDS011;46919;45.816;3.104;2023-02-24T15:36:49;2.38;;;0.30;;
61038;SDS011;46919;45.816;3.104;2023-02-24T15:39:20;0.68;;;0.40;;
61038;SDS011;46919;45.816;3.104;2023-02-24T15:41:48;0.38;;;0.20;;
61038;SDS011;46919;45.816;3.104;2023-02-24T15:44:22;0.82;;;0.30;;
61038;SDS011;46919;45.816;3.104;2023-02-24T15:46:56;1.15;;;0.20;;
61038;SDS011;46919;45.816;3.104;2023-02-24T15:49:22;3.30;;;0.38;;
61038;SDS011;46919;45.816;3.104;2023-02-24T15:51:49;0.35;;;0.30;;
61038;SDS011;46919;45.816;3.104;2023-02-24T15:54:23;0.28;;;0.20;;
61038;SDS011;46919;45.816;3.104;2023-02-24T15:56:53;0.47;;;0.20;;
61038;SDS011;46919;45.816;3.104;2023-02-24T15:59:22;1.55;;;0.28;;
61038;SDS011;46919;45.816;3.104;2023-02-24T16:01:47;0.25;;;0.25;;
61038;SDS011;46919;45.816;3.104;2023-02-24T16:04:13;0.47;;;0.20;;
61038;SDS011;46919;45.816;3.104;2023-02-24T16:06:38;0.38;;;0.20;;
61038;SDS011;46919;45.816;3.104;2023-02-24T16:09:07;0.68;;;0.40;;
61038;SDS011;46919;45.816;3.104;2023-02-24T16:11:37;1.15;;;0.30;;
61038;SDS011;46919;45.816;3.104;2023-02-24T16:14:07;0.75;;;0.40;;
61038;SDS011;46919;45.816;3.104;2023-02-24T16:16:38;0.43;;;0.40;;
61038;SDS011;46919;45.816;3.104;2023-02-24T16:19:05;0.98;;;0.57;;
61038;SDS011;46919;45.816;3.104;2023-02-24T16:21:31;1.20;;;0.50;;
61038;SDS011;46919;45.816;3.104;2023-02-24T16:23:56;0.57;;;0.40;;
61038;SDS011;46919;45.816;3.104;2023-02-24T16:26:22;0.20;;;0.20;;
61038;SDS011;46919;45.816;3.104;2023-02-24T16:28:54;0.45;;;0.30;;
61038;SDS011;46919;45.816;3.104;2023-02-24T16:31:22;0.30;;;0.22;;
61038;SDS011;46919;45.816;3.104;2023-02-24T16:33:48;1.40;;;0.40;;
61038;SDS011;46919;45.816;3.104;2023-02-24T16:36:14;1.17;;;0.30;;
61038;SDS011;46919;45.816;3.104;2023-02-24T16:38:40;0.70;;;0.30;;
61038;SDS011;46919;45.816;3.104;2023-02-24T16:41:08;0.30;;;0.30;;
61038;SDS011;46919;45.816;3.104;2023-02-24T16:43:34;0.20;;;0.20;;
61038;SDS011;46919;45.816;3.104;2023-02-24T16:46:02;0.20;;;0.20;;
61038;SDS011;46919;45.816;3.104;2023-02-24T16:48:29;0.40;;;0.30;;
61038;SDS011;46919;45.816;3.104;2023-02-24T16:51:01;0.55;;;0.32;;
61038;SDS011;46919;45.816;3.104;2023-02-24T16:53:27;0.85;;;0.50;;
61038;SDS011;46919;45.816;3.104;2023-02-24T16:55:53;0.30;;;0.20;;
61038;SDS011;46919;45.816;3.104;2023-02-24T16:58:18;0.63;;;0.20;;
61038;SDS011;46919;45.816;3.104;2023-02-24T17:00:45;0.30;;;0.20;;
61038;SDS011;46919;45.816;3.104;2023-02-24T17:03:15;0.32;;;0.28;;
61038;SDS011;46919;45.816;3.104;2023-02-24T17:05:43;0.60;;;0.30;;
61038;SDS011;46919;45.816;3.104;2023-02-24T17:08:09;0.25;;;0.10;;
61038;SDS011;46919;45.816;3.104;2023-02-24T17:10:35;0.13;;;0.10;;
61038;SDS011;46919;45.816;3.104;2023-02-24T17:13:03;0.93;;;0.20;;
61038;SDS011;46919;45.816;3.104;2023-02-24T17:15:34;0.15;;;0.10;;
61038;SDS011;46919;45.816;3.104;2023-02-24T17:17:59;0.20;;;0.20;;
61038;SDS011;46919;45.816;3.104;2023-02-24T17:20:25;0.20;;;0.20;;
61038;SDS011;46919;45.816;3.104;2023-02-24T17:22:50;0.30;;;0.30;;
61038;SDS011;46919;45.816;3.104;2023-02-24T17:25:17;0.55;;;0.20;;
61038;SDS011;46919;45.816;3.104;2023-02-24T17:27:45;3.30;;;0.20;;
61038;SDS011;46919;45.816;3.104;2023-02-24T17:30:12;0.15;;;0.15;;
61038;SDS011;46919;45.816;3.104;2023-02-24T17:32:39;1.00;;;0.20;;
61038;SDS011;46919;45.816;3.104;2023-02-24T17:35:04;0.20;;;0.20;;
61038;SDS011;46919;45.816;3.104;2023-02-24T17:37:30;2.50;;;0.20;;
61038;SDS011;46919;45.816;3.104;2023-02-24T17:39:56;0.20;;;0.10;;
61038;SDS011;46919;45.816;3.104;2023-02-24T17:42:21;0.20;;;0.20;;
61038;SDS011;46919;45.816;3.104;2023-02-24T17:44:46;0.73;;;0.20;;
61038;SDS011;46919;45.816;3.104;2023-02-24T17:47:12;0.32;;;0.17;;
61038;SDS011;46919;45.816;3.104;2023-02-24T17:49:37;0.40;;;0.30;;